Terminal Aerodrome Forecast
Issued by NWS

Home | Current Version | Previous Version | Text Only | Print | Product List | Glossary On
Versions: 1 2 3 4 5 6 7 8 9 10 11 12 13 14 15
850
FTUS41 KBTV 090606 AAA
TAFRUT
TAF AMD
KRUT 090606Z 0906/1006 13006KT 6SM -SN OVC035
      TEMPO 0906/0910 3SM -SN BR SCT015 OVC025
     FM091000 13006KT 3SM -SN BR OVC025
     FM091400 16004KT 3SM -SN BR OVC025
     FM100000 VRB03KT 6SM -SN OVC030
      AMD LTD TO CLD VIS AND WIND=

USA.gov is the U.S. government's official web portal to all federal, state and local government web resources and services.